createdAt,value
2018-09-13T00:00:48.961Z,88.91
2018-09-13T00:01:55.207Z,88.58
2018-09-13T00:03:01.430Z,88.64
2018-09-13T00:04:07.665Z,88.85
2018-09-13T00:05:14.820Z,88.43
2018-09-13T00:06:22.031Z,88.26
2018-09-13T00:07:27.965Z,87.85
2018-09-13T00:08:34.196Z,87.37
2018-09-13T00:09:40.449Z,86.83
2018-09-13T00:10:46.049Z,87.26
2018-09-13T00:11:52.293Z,87.69
2018-09-13T00:12:58.534Z,88.00
2018-09-13T00:14:04.865Z,88.62
2018-09-13T00:15:11.184Z,88.79
2018-09-13T00:16:17.458Z,88.46
2018-09-13T00:17:23.709Z,88.21
2018-09-13T00:18:29.995Z,88.15
2018-09-13T00:19:36.290Z,88.90
2018-09-13T00:20:42.574Z,89.09
2018-09-13T00:21:48.830Z,88.85
2018-09-13T00:22:55.057Z,88.32
2018-09-13T00:24:01.362Z,88.26
2018-09-13T00:25:07.636Z,88.76
2018-09-13T00:26:13.859Z,88.26
2018-09-13T00:27:20.125Z,87.38
2018-09-13T00:28:26.379Z,87.30
2018-09-13T00:29:32.643Z,88.05
2018-09-13T00:30:38.931Z,88.69
2018-09-13T00:31:45.178Z,88.69
2018-09-13T00:32:51.459Z,88.07
2018-09-13T00:33:57.736Z,87.47
2018-09-13T00:35:03.963Z,87.44
2018-09-13T00:36:10.222Z,87.62
2018-09-13T00:37:16.204Z,88.12
2018-09-13T00:38:22.423Z,88.61
2018-09-13T00:39:28.676Z,88.40
2018-09-13T00:40:34.948Z,88.03
2018-09-13T00:41:41.167Z,87.30
2018-09-13T00:42:47.432Z,87.64
2018-09-13T00:43:53.432Z,88.36
2018-09-13T00:44:59.394Z,88.69
2018-09-13T00:46:05.656Z,88.21
2018-09-13T00:47:11.872Z,88.63
2018-09-13T00:48:18.121Z,88.84
2018-09-13T00:49:24.366Z,89.02
2018-09-13T00:50:30.251Z,88.78
2018-09-13T00:51:36.522Z,88.99
2018-09-13T00:52:42.774Z,89.01
2018-09-13T00:53:49.029Z,89.24
2018-09-13T00:54:55.316Z,89.58
2018-09-13T00:56:01.524Z,89.51
2018-09-13T00:57:07.778Z,89.63
2018-09-13T00:58:14.045Z,89.52
2018-09-13T00:59:20.302Z,88.98
2018-09-13T01:00:26.601Z,88.29
2018-09-13T01:01:31.852Z,88.76
2018-09-13T01:02:37.741Z,88.90
2018-09-13T01:03:43.961Z,88.89
2018-09-13T01:04:50.230Z,89.21
2018-09-13T01:05:56.220Z,89.35
2018-09-13T01:07:02.461Z,89.37
2018-09-13T01:08:08.713Z,89.16
2018-09-13T01:09:14.936Z,89.10
2018-09-13T01:10:21.261Z,89.68
2018-09-13T01:11:27.495Z,89.56
2018-09-13T01:12:33.747Z,89.38
2018-09-13T01:13:40.005Z,89.54
2018-09-13T01:14:45.971Z,89.30
2018-09-13T01:15:52.202Z,89.13
2018-09-13T01:16:58.442Z,89.37
2018-09-13T01:18:04.675Z,89.38
2018-09-13T01:19:10.925Z,89.58
2018-09-13T01:20:17.197Z,89.25
2018-09-13T01:21:23.201Z,89.24
2018-09-13T01:22:29.664Z,89.21
2018-09-13T01:23:35.617Z,88.79
2018-09-13T01:24:41.874Z,88.93
2018-09-13T01:25:47.876Z,89.00
2018-09-13T01:26:54.137Z,88.79
2018-09-13T01:28:00.811Z,88.96
2018-09-13T01:29:06.531Z,88.93
2018-09-13T01:30:12.455Z,89.43
2018-09-13T01:31:18.456Z,89.19
2018-09-13T01:32:24.669Z,89.28
2018-09-13T01:33:30.936Z,89.55
2018-09-13T01:34:37.235Z,89.50
2018-09-13T01:35:43.509Z,89.57
2018-09-13T01:36:49.781Z,89.60
2018-09-13T01:37:55.729Z,89.44
2018-09-13T01:39:01.982Z,88.84
2018-09-13T01:40:07.594Z,88.62
2018-09-13T01:41:13.883Z,88.65
2018-09-13T01:42:20.129Z,89.28
2018-09-13T01:43:26.367Z,88.38
2018-09-13T01:44:31.649Z,88.85
2018-09-13T01:45:37.952Z,88.98
2018-09-13T01:46:44.214Z,89.12
2018-09-13T01:47:50.434Z,89.20
2018-09-13T01:48:56.683Z,88.92
2018-09-13T01:50:02.957Z,89.19
2018-09-13T01:51:09.202Z,89.38
2018-09-13T01:52:15.470Z,89.26
2018-09-13T01:53:21.778Z,89.00
2018-09-13T01:54:28.021Z,88.64
2018-09-13T01:55:34.505Z,88.64
2018-09-13T01:56:40.923Z,88.72
2018-09-13T01:57:47.225Z,88.90
2018-09-13T01:58:53.469Z,89.26
2018-09-13T01:59:59.716Z,89.31
2018-09-13T02:01:05.296Z,89.05
2018-09-13T02:02:11.512Z,88.77
2018-09-13T02:03:17.794Z,89.19
2018-09-13T02:04:24.026Z,88.96
2018-09-13T02:05:30.310Z,89.12
2018-09-13T02:06:36.586Z,89.02
2018-09-13T02:07:42.847Z,88.47
2018-09-13T02:08:48.836Z,88.28
2018-09-13T02:09:55.281Z,88.61
2018-09-13T02:11:01.532Z,88.83
2018-09-13T02:12:07.429Z,88.79
2018-09-13T02:13:13.665Z,88.61
2018-09-13T02:14:19.980Z,88.79
2018-09-13T02:15:26.180Z,88.36
2018-09-13T02:16:32.496Z,88.75
2018-09-13T02:17:38.745Z,88.49
2018-09-13T02:18:44.960Z,88.54
2018-09-13T02:19:50.897Z,88.74
2018-09-13T02:20:57.123Z,88.56
2018-09-13T02:22:03.389Z,88.85
2018-09-13T02:23:09.624Z,89.08
2018-09-13T02:24:15.867Z,89.22
2018-09-13T02:25:21.824Z,88.99
2018-09-13T02:26:28.110Z,89.43
2018-09-13T02:27:34.362Z,89.64
2018-09-13T02:28:40.394Z,89.62
2018-09-13T02:29:46.648Z,89.60
2018-09-13T02:30:52.919Z,89.94
2018-09-13T02:31:59.204Z,89.80
2018-09-13T02:33:05.067Z,89.74
2018-09-13T02:34:11.288Z,89.95
2018-09-13T02:35:17.296Z,89.99
2018-09-13T02:36:23.580Z,89.63
2018-09-13T02:37:29.881Z,89.48
2018-09-13T02:38:36.125Z,89.60
2018-09-13T02:39:42.373Z,89.80
2018-09-13T02:40:48.383Z,89.89
2018-09-13T02:41:58.219Z,89.84
2018-09-13T02:43:04.127Z,90.04
2018-09-13T02:44:09.842Z,89.88
2018-09-13T02:45:16.109Z,89.84
2018-09-13T02:46:22.425Z,89.95
2018-09-13T02:47:28.734Z,89.67
2018-09-13T02:48:34.971Z,89.58
2018-09-13T02:49:41.236Z,89.82
2018-09-13T02:50:47.462Z,89.94
2018-09-13T02:51:53.918Z,90.00
2018-09-13T02:52:59.963Z,89.76
2018-09-13T02:54:05.823Z,89.65
2018-09-13T02:55:12.090Z,89.91
2018-09-13T02:56:19.028Z,90.09
2018-09-13T02:57:25.014Z,89.86
2018-09-13T02:58:31.226Z,89.88
2018-09-13T02:59:37.495Z,89.92
2018-09-13T03:00:44.094Z,90.00
2018-09-13T03:01:51.292Z,89.84
2018-09-13T03:02:58.531Z,90.12
2018-09-13T03:04:05.315Z,89.90
2018-09-13T03:05:12.642Z,89.76
2018-09-13T03:06:19.461Z,90.15
2018-09-13T03:07:27.284Z,90.15
2018-09-13T03:08:35.299Z,90.35
2018-09-13T03:09:43.100Z,90.22
2018-09-13T03:10:50.467Z,89.94
2018-09-13T03:11:58.880Z,89.59
2018-09-13T03:13:07.190Z,90.01
2018-09-13T03:14:14.621Z,90.16
2018-09-13T03:15:22.978Z,90.07
2018-09-13T03:16:31.230Z,90.15
2018-09-13T03:17:38.681Z,90.01
2018-09-13T03:18:46.098Z,89.88
2018-09-13T03:19:53.228Z,89.92
2018-09-13T03:21:00.656Z,90.17
2018-09-13T03:22:08.402Z,90.20
2018-09-13T03:23:16.155Z,90.30
2018-09-13T03:24:23.602Z,90.22
2018-09-13T03:25:31.239Z,90.08
2018-09-13T03:26:38.170Z,89.64
2018-09-13T03:27:45.053Z,89.75
2018-09-13T03:28:52.690Z,90.07
2018-09-13T03:30:00.171Z,90.17
2018-09-13T03:31:08.076Z,89.62
2018-09-13T03:32:15.856Z,89.89
2018-09-13T03:33:24.030Z,90.05
2018-09-13T03:34:30.627Z,90.21
2018-09-13T03:35:38.132Z,90.14
2018-09-13T03:36:45.558Z,90.25
2018-09-13T03:37:54.543Z,89.97
2018-09-13T03:39:02.548Z,89.50
2018-09-13T03:40:09.732Z,89.68
2018-09-13T03:41:18.956Z,89.88
2018-09-13T03:42:26.205Z,90.15
2018-09-13T03:43:33.065Z,90.22
2018-09-13T03:44:40.164Z,90.15
2018-09-13T03:45:47.475Z,90.07
2018-09-13T03:46:54.910Z,89.96
2018-09-13T03:48:02.416Z,89.88
2018-09-13T03:49:09.735Z,90.02
2018-09-13T03:50:16.607Z,90.13
2018-09-13T03:51:23.952Z,90.07
2018-09-13T03:52:31.117Z,90.24
2018-09-13T03:53:38.253Z,90.33
2018-09-13T03:54:45.549Z,89.98
2018-09-13T03:55:52.917Z,90.16
2018-09-13T03:56:59.826Z,90.33
2018-09-13T03:58:08.161Z,90.50
2018-09-13T03:59:15.449Z,90.47
2018-09-13T04:00:23.117Z,90.47
2018-09-13T04:01:30.306Z,90.40
2018-09-13T04:02:37.506Z,90.23
2018-09-13T04:03:44.762Z,90.17
2018-09-13T04:04:53.488Z,90.36
2018-09-13T04:06:01.016Z,90.40
2018-09-13T04:07:08.173Z,90.33
2018-09-13T04:08:15.378Z,90.37
2018-09-13T04:09:23.113Z,90.40
2018-09-13T04:10:29.645Z,90.23
2018-09-13T04:11:35.913Z,90.14
2018-09-13T04:12:42.301Z,90.21
2018-09-13T04:13:48.383Z,90.28
2018-09-13T04:14:54.684Z,90.27
2018-09-13T04:16:01.241Z,90.13
2018-09-13T04:17:08.588Z,90.14
2018-09-13T04:18:14.848Z,90.08
2018-09-13T04:19:20.856Z,90.20
2018-09-13T04:20:27.122Z,90.25
2018-09-13T04:21:33.349Z,90.12
2018-09-13T04:22:39.601Z,89.26
2018-09-13T04:23:46.153Z,89.70
2018-09-13T04:24:52.400Z,89.82
2018-09-13T04:25:58.641Z,90.06
2018-09-13T04:27:04.868Z,89.78
2018-09-13T04:28:11.142Z,89.69
2018-09-13T04:29:17.158Z,89.77
2018-09-13T04:30:23.446Z,89.31
2018-09-13T04:31:29.752Z,89.75
2018-09-13T04:32:35.987Z,90.19
2018-09-13T04:33:42.269Z,90.14
2018-09-13T04:34:48.486Z,90.09
2018-09-13T04:35:54.862Z,90.31
2018-09-13T04:37:01.274Z,90.58
2018-09-13T04:38:07.561Z,90.67
2018-09-13T04:39:13.823Z,90.87
2018-09-13T04:40:20.155Z,90.72
2018-09-13T04:41:26.665Z,90.68
2018-09-13T04:42:32.641Z,91.07
2018-09-13T04:43:38.686Z,91.21
2018-09-13T04:44:44.934Z,91.23
2018-09-13T04:45:50.951Z,91.32
2018-09-13T04:46:57.168Z,91.56
2018-09-13T04:48:03.561Z,91.50
2018-09-13T04:49:09.873Z,91.37
2018-09-13T04:50:16.339Z,91.46
2018-09-13T04:51:22.613Z,91.05
2018-09-13T04:52:28.615Z,91.18
2018-09-13T04:53:34.898Z,91.24
2018-09-13T04:54:41.148Z,90.95
2018-09-13T04:55:47.161Z,90.72
2018-09-13T04:56:53.436Z,90.83
2018-09-13T04:57:59.695Z,90.91
2018-09-13T04:59:05.040Z,91.01
2018-09-13T05:00:11.304Z,91.31
2018-09-13T05:01:17.426Z,91.33
2018-09-13T05:02:23.665Z,91.50
2018-09-13T05:03:29.981Z,91.60
2018-09-13T05:04:36.221Z,91.59
2018-09-13T05:05:42.532Z,91.68
2018-09-13T05:06:48.782Z,91.30
2018-09-13T05:07:55.141Z,91.47
2018-09-13T05:09:01.432Z,91.75
2018-09-13T05:10:07.414Z,91.60
2018-09-13T05:11:13.687Z,91.94
2018-09-13T05:12:19.941Z,92.07
2018-09-13T05:13:26.685Z,92.27
2018-09-13T05:14:33.164Z,92.49
2018-09-13T05:15:39.389Z,92.26
2018-09-13T05:16:45.644Z,92.60
2018-09-13T05:17:52.041Z,92.81
2018-09-13T05:18:58.504Z,93.15
2018-09-13T05:20:04.506Z,93.11
2018-09-13T05:21:10.801Z,93.41
2018-09-13T05:22:17.103Z,93.58
2018-09-13T05:23:23.302Z,93.47
2018-09-13T05:24:29.622Z,93.64
2018-09-13T05:25:35.802Z,93.72
2018-09-13T05:26:42.037Z,93.75
2018-09-13T05:27:48.256Z,94.00
2018-09-13T05:28:54.548Z,93.81
2018-09-13T05:30:00.799Z,93.81
2018-09-13T05:31:06.870Z,93.81
2018-09-13T05:32:13.127Z,93.85
2018-09-13T05:33:19.352Z,93.93
2018-09-13T05:34:25.630Z,94.24
2018-09-13T05:35:31.874Z,94.35
2018-09-13T05:36:38.100Z,94.40
2018-09-13T05:37:44.110Z,94.41
2018-09-13T05:38:50.391Z,94.45
2018-09-13T05:39:56.854Z,94.41
2018-09-13T05:41:03.112Z,94.49
2018-09-13T05:42:09.004Z,94.34
2018-09-13T05:43:14.984Z,94.18
2018-09-13T05:44:21.254Z,94.47
2018-09-13T05:45:28.155Z,94.65
2018-09-13T05:46:34.409Z,94.72
2018-09-13T05:47:40.650Z,94.82
2018-09-13T05:48:46.901Z,94.84
2018-09-13T05:49:53.187Z,94.71
2018-09-13T05:50:59.456Z,94.93
2018-09-13T05:52:05.702Z,95.04
2018-09-13T05:53:11.951Z,95.08
2018-09-13T05:54:18.270Z,95.04
2018-09-13T05:55:24.512Z,94.80
2018-09-13T05:56:30.738Z,94.76
2018-09-13T05:57:36.987Z,94.62
2018-09-13T05:58:43.234Z,94.60
2018-09-13T05:59:49.559Z,94.76
2018-09-13T06:01:00.871Z,95.26
2018-09-13T06:02:07.200Z,95.29
2018-09-13T06:03:13.427Z,95.45
2018-09-13T06:04:19.697Z,94.94
2018-09-13T06:05:25.934Z,94.91
2018-09-13T06:06:32.191Z,94.72
2018-09-13T06:07:38.422Z,94.77
2018-09-13T06:08:44.705Z,95.09
2018-09-13T06:09:50.765Z,95.13
2018-09-13T06:10:57.037Z,95.37
2018-09-13T06:12:03.325Z,95.44
2018-09-13T06:13:09.784Z,95.37
2018-09-13T06:14:16.180Z,95.47
2018-09-13T06:15:22.409Z,95.63
2018-09-13T06:16:28.402Z,95.28
2018-09-13T06:17:34.632Z,95.19
2018-09-13T06:18:40.868Z,95.49
2018-09-13T06:19:47.191Z,95.73
2018-09-13T06:20:53.633Z,95.70
2018-09-13T06:21:59.876Z,95.51
2018-09-13T06:23:06.100Z,95.16
2018-09-13T06:24:12.303Z,95.49
2018-09-13T06:25:18.556Z,95.61
2018-09-13T06:26:24.803Z,95.50
2018-09-13T06:27:31.040Z,95.68
2018-09-13T06:28:37.243Z,95.60
2018-09-13T06:29:43.505Z,95.75
2018-09-13T06:30:49.771Z,96.00
2018-09-13T06:31:56.264Z,96.41
2018-09-13T06:33:02.535Z,96.20
2018-09-13T06:34:08.793Z,96.31
2018-09-13T06:35:15.058Z,96.42
2018-09-13T06:36:21.317Z,96.40
2018-09-13T06:37:27.785Z,96.33
2018-09-13T06:38:34.002Z,96.32
2018-09-13T06:39:40.383Z,96.27
2018-09-13T06:40:46.624Z,96.38
2018-09-13T06:41:52.898Z,96.06
2018-09-13T06:42:59.150Z,95.61
2018-09-13T06:44:05.381Z,95.12
2018-09-13T06:45:11.649Z,94.79
2018-09-13T06:46:17.912Z,94.49
2018-09-13T06:47:24.184Z,95.44
2018-09-13T06:48:30.479Z,95.82
2018-09-13T06:49:36.879Z,95.66
2018-09-13T06:50:43.156Z,95.83
2018-09-13T06:51:49.416Z,95.86
2018-09-13T06:52:55.657Z,95.62
2018-09-13T06:54:01.932Z,95.75
2018-09-13T06:55:07.718Z,95.71
2018-09-13T06:56:14.013Z,95.52
2018-09-13T06:57:20.238Z,95.16
2018-09-13T06:58:26.465Z,94.63
2018-09-13T06:59:32.663Z,94.56
2018-09-13T07:00:38.698Z,94.06
2018-09-13T07:01:44.983Z,94.23
2018-09-13T07:02:51.245Z,94.30
2018-09-13T07:03:57.487Z,94.46
2018-09-13T07:05:03.445Z,94.53
2018-09-13T07:06:09.671Z,94.73
2018-09-13T07:07:15.730Z,94.78
2018-09-13T07:08:22.155Z,94.56
2018-09-13T07:09:28.153Z,94.25
2018-09-13T07:10:33.892Z,93.52
2018-09-13T07:11:40.115Z,93.48
2018-09-13T07:12:46.384Z,93.06
2018-09-13T07:13:52.385Z,93.23
2018-09-13T07:14:58.723Z,92.87
2018-09-13T07:16:04.991Z,93.00
2018-09-13T07:17:11.195Z,92.81
2018-09-13T07:18:17.425Z,92.08
2018-09-13T07:19:23.645Z,91.60
2018-09-13T07:20:29.933Z,91.25
2018-09-13T07:21:36.233Z,91.19
2018-09-13T07:22:42.123Z,91.11
2018-09-13T07:23:48.125Z,90.91
2018-09-13T07:24:54.092Z,90.54
2018-09-13T07:26:00.385Z,90.63
2018-09-13T07:27:05.922Z,90.08
2018-09-13T07:28:12.214Z,90.40
2018-09-13T07:29:18.473Z,90.40
2018-09-13T07:30:24.819Z,90.17
2018-09-13T07:31:31.098Z,90.23
2018-09-13T07:32:37.386Z,89.84
2018-09-13T07:33:43.606Z,89.89
2018-09-13T07:34:49.822Z,89.87
2018-09-13T07:35:56.088Z,89.98
2018-09-13T07:37:02.326Z,90.03
2018-09-13T07:38:08.556Z,89.94
2018-09-13T07:39:14.607Z,89.59
2018-09-13T07:40:20.832Z,89.34
2018-09-13T07:41:27.090Z,89.50
2018-09-13T07:42:33.425Z,89.08
2018-09-13T07:43:39.818Z,88.72
2018-09-13T07:44:45.811Z,89.08
2018-09-13T07:45:52.076Z,88.92
2018-09-13T07:46:58.074Z,87.60
2018-09-13T07:48:04.330Z,87.08
2018-09-13T07:49:10.591Z,86.82
2018-09-13T07:50:17.015Z,86.77
2018-09-13T07:51:23.389Z,86.75
2018-09-13T07:52:29.856Z,85.55
2018-09-13T07:53:36.110Z,85.56
2018-09-13T07:54:42.340Z,85.72
2018-09-13T07:55:48.440Z,85.05
2018-09-13T07:56:54.845Z,85.16
2018-09-13T07:58:00.850Z,84.70
2018-09-13T07:59:07.089Z,84.93
2018-09-13T08:00:13.317Z,84.52
2018-09-13T08:01:19.584Z,84.63
2018-09-13T08:02:25.876Z,84.67
2018-09-13T08:03:32.083Z,84.78
2018-09-13T08:04:38.037Z,85.08
2018-09-13T08:05:44.292Z,84.74
2018-09-13T08:06:50.559Z,84.65
2018-09-13T08:07:56.788Z,84.49
2018-09-13T08:09:02.776Z,84.14
2018-09-13T08:10:08.800Z,84.45
2018-09-13T08:11:15.146Z,84.14
2018-09-13T08:12:21.369Z,84.29
2018-09-13T08:13:27.642Z,84.39
2018-09-13T08:14:33.589Z,84.49
2018-09-13T08:15:39.561Z,83.48
2018-09-13T08:16:45.828Z,83.99
2018-09-13T08:17:52.051Z,83.17
2018-09-13T08:18:58.314Z,83.76
2018-09-13T08:20:04.235Z,83.60
2018-09-13T08:21:10.525Z,84.05
2018-09-13T08:22:17.349Z,84.19
2018-09-13T08:23:23.340Z,84.62
2018-09-13T08:24:29.586Z,84.43
2018-09-13T08:25:35.848Z,84.54
2018-09-13T08:26:42.138Z,84.99
2018-09-13T08:27:48.380Z,84.97
2018-09-13T08:28:54.603Z,84.83
2018-09-13T08:30:00.613Z,85.20
2018-09-13T08:31:06.891Z,85.28
2018-09-13T08:32:13.164Z,85.16
2018-09-13T08:33:19.524Z,85.20
2018-09-13T08:34:25.958Z,85.39
2018-09-13T08:35:32.209Z,85.30
2018-09-13T08:36:38.476Z,85.50
2018-09-13T08:37:44.701Z,85.43
2018-09-13T08:38:50.936Z,85.21
2018-09-13T08:39:57.326Z,85.08
2018-09-13T08:41:03.463Z,85.39
2018-09-13T08:42:09.118Z,85.48
2018-09-13T08:43:15.563Z,85.46
2018-09-13T08:44:21.864Z,85.32
2018-09-13T08:45:28.156Z,85.39
2018-09-13T08:46:34.443Z,85.07
2018-09-13T08:47:40.738Z,85.67
2018-09-13T08:48:47.188Z,85.23
2018-09-13T08:49:53.617Z,85.57
2018-09-13T08:50:59.934Z,85.03
2018-09-13T08:52:06.270Z,84.89
2018-09-13T08:53:12.504Z,84.84
2018-09-13T08:54:18.754Z,84.45
2018-09-13T08:55:25.018Z,84.30
2018-09-13T08:56:31.293Z,85.43
2018-09-13T08:57:38.705Z,86.39
2018-09-13T08:58:44.949Z,86.52
2018-09-13T08:59:51.179Z,86.48
2018-09-13T09:00:57.406Z,87.50
2018-09-13T09:02:03.688Z,87.52
2018-09-13T09:03:10.004Z,87.50
2018-09-13T09:04:16.251Z,87.46
2018-09-13T09:05:22.519Z,87.49
2018-09-13T09:06:28.751Z,87.39
2018-09-13T09:07:34.999Z,87.25
2018-09-13T09:08:41.273Z,87.46
2018-09-13T09:09:47.523Z,86.92
2018-09-13T09:10:53.797Z,86.92
2018-09-13T09:12:00.108Z,86.47
2018-09-13T09:13:06.211Z,86.50
2018-09-13T09:14:12.514Z,86.42
2018-09-13T09:15:18.759Z,86.33
2018-09-13T09:16:25.009Z,86.15
2018-09-13T09:17:31.292Z,85.57
2018-09-13T09:18:37.606Z,85.24
2018-09-13T09:19:44.004Z,85.27
2018-09-13T09:20:50.136Z,84.94
2018-09-13T09:21:56.398Z,85.03
2018-09-13T09:23:02.608Z,83.50
2018-09-13T09:24:08.548Z,83.40
2018-09-13T09:25:15.003Z,83.20
2018-09-13T09:26:21.283Z,82.62
2018-09-13T09:27:27.565Z,82.44
2018-09-13T09:28:33.896Z,82.06
2018-09-13T09:29:40.142Z,82.48
2018-09-13T09:30:46.368Z,81.66
2018-09-13T09:31:52.605Z,81.84
2018-09-13T09:32:58.894Z,81.87
2018-09-13T09:34:05.121Z,81.38
2018-09-13T09:35:11.378Z,81.64
2018-09-13T09:36:17.663Z,81.18
2018-09-13T09:37:23.930Z,80.96
2018-09-13T09:38:30.154Z,81.47
2018-09-13T09:39:36.424Z,81.26
2018-09-13T09:40:42.782Z,81.19
2018-09-13T09:41:49.193Z,80.98
2018-09-13T09:42:55.465Z,80.50
2018-09-13T09:44:01.703Z,80.41
2018-09-13T09:45:07.977Z,80.25
2018-09-13T09:46:14.209Z,80.31
2018-09-13T09:47:20.726Z,80.22
2018-09-13T09:48:26.969Z,80.32
2018-09-13T09:49:33.257Z,80.32
2018-09-13T09:50:39.478Z,81.14
2018-09-13T09:51:45.720Z,80.90
2018-09-13T09:52:52.018Z,80.56
2018-09-13T09:53:58.249Z,80.44
2018-09-13T09:55:04.117Z,80.21
2018-09-13T09:56:10.425Z,80.03
2018-09-13T09:57:16.851Z,80.84
2018-09-13T09:58:23.164Z,80.95
2018-09-13T09:59:29.417Z,80.74
2018-09-13T10:00:35.472Z,81.08
2018-09-13T10:01:41.507Z,80.31
2018-09-13T10:02:52.023Z,80.85
2018-09-13T10:04:05.932Z,80.45
2018-09-13T10:05:12.584Z,81.00
2018-09-13T10:06:19.241Z,80.11
2018-09-13T10:07:25.624Z,79.84
2018-09-13T10:08:31.877Z,79.79
2018-09-13T10:09:38.142Z,79.75
2018-09-13T10:10:47.544Z,79.46
2018-09-13T10:11:53.964Z,79.88
2018-09-13T10:13:00.429Z,80.23
2018-09-13T10:14:06.597Z,79.62
2018-09-13T10:15:13.209Z,79.39
2018-09-13T10:16:24.708Z,79.33
2018-09-13T10:17:36.331Z,79.33
2018-09-13T10:18:42.349Z,79.43
2018-09-13T10:19:49.228Z,79.90
2018-09-13T10:22:44.689Z,79.45
2018-09-13T10:24:11.672Z,79.68
2018-09-13T10:27:11.598Z,78.90
2018-09-13T10:28:48.791Z,79.58
2018-09-13T10:30:29.164Z,79.72
2018-09-13T10:32:06.125Z,79.98
2018-09-13T10:33:47.511Z,80.11
2018-09-13T10:35:24.488Z,80.22
2018-09-13T10:37:01.605Z,80.06
2018-09-13T10:38:42.573Z,79.80
2018-09-13T10:40:19.626Z,79.63
2018-09-13T10:42:01.954Z,79.74
2018-09-13T10:43:43.080Z,80.07
2018-09-13T10:45:26.955Z,80.52
2018-09-13T10:46:33.515Z,80.37
2018-09-13T10:47:42.165Z,81.06
2018-09-13T10:48:46.661Z,80.63
2018-09-13T10:51:32.077Z,80.04
2018-09-13T10:52:38.173Z,79.91
2018-09-13T10:53:43.356Z,80.22
2018-09-13T10:54:50.866Z,80.12
2018-09-13T10:55:56.890Z,80.66
2018-09-13T10:57:02.800Z,80.27
2018-09-13T10:58:08.772Z,80.29
2018-09-13T10:59:16.463Z,81.10
2018-09-13T11:00:23.241Z,80.42
2018-09-13T11:01:30.173Z,80.36
2018-09-13T11:02:36.152Z,80.87
2018-09-13T11:03:43.953Z,79.93
2018-09-13T11:04:49.684Z,80.25
2018-09-13T11:05:55.561Z,79.82
2018-09-13T11:07:01.472Z,79.68
2018-09-13T11:08:07.017Z,80.06
2018-09-13T11:09:12.409Z,79.70
2018-09-13T11:10:20.338Z,79.29
2018-09-13T11:11:26.786Z,79.31
2018-09-13T11:12:33.011Z,79.32
2018-09-13T11:13:38.790Z,79.75
2018-09-13T11:14:44.903Z,80.29
2018-09-13T11:15:50.561Z,79.94
2018-09-13T11:18:08.259Z,80.21
2018-09-13T11:19:15.457Z,80.19
2018-09-13T11:20:21.511Z,80.28
2018-09-13T11:21:31.645Z,79.75
2018-09-13T11:22:37.770Z,79.82
2018-09-13T11:23:43.845Z,79.70
2018-09-13T11:24:49.740Z,79.91
2018-09-13T11:25:55.718Z,80.19
2018-09-13T11:27:02.013Z,79.82
2018-09-13T11:28:08.953Z,79.77
2018-09-13T11:29:15.737Z,79.56
2018-09-13T11:30:24.097Z,79.35
2018-09-13T11:31:31.269Z,78.99
2018-09-13T11:32:40.744Z,79.26
2018-09-13T11:33:47.411Z,79.64
2018-09-13T11:34:53.376Z,79.43
2018-09-13T11:36:00.290Z,79.75
2018-09-13T11:37:07.048Z,79.61
2018-09-13T11:38:13.012Z,79.82
2018-09-13T11:39:19.017Z,79.90
2018-09-13T11:40:25.378Z,80.31
2018-09-13T11:41:32.256Z,80.46
2018-09-13T11:42:38.731Z,79.71
2018-09-13T11:43:44.000Z,78.97
2018-09-13T11:44:58.467Z,78.74
2018-09-13T11:46:05.231Z,78.45
2018-09-13T11:47:11.752Z,78.64
2018-09-13T11:48:18.968Z,79.23
2018-09-13T11:49:27.696Z,79.26
2018-09-13T11:50:34.281Z,79.91
2018-09-13T11:51:45.384Z,80.55
2018-09-13T11:52:51.669Z,80.84
2018-09-13T11:53:57.999Z,81.02
2018-09-13T11:55:04.104Z,81.57
2018-09-13T11:56:10.157Z,81.29
2018-09-13T11:57:19.808Z,81.56
2018-09-13T11:58:25.781Z,81.44
2018-09-13T11:59:32.081Z,81.37
2018-09-13T12:00:39.465Z,81.31
2018-09-13T12:01:45.463Z,81.08
2018-09-13T12:02:51.728Z,80.97
2018-09-13T12:03:58.080Z,81.35
2018-09-13T12:05:03.756Z,81.38
2018-09-13T12:06:10.151Z,81.48
2018-09-13T12:07:16.400Z,81.97
2018-09-13T12:08:22.409Z,82.72
2018-09-13T12:09:28.756Z,82.72
2018-09-13T12:10:35.721Z,82.40
2018-09-13T12:11:45.110Z,82.11
2018-09-13T12:12:56.419Z,82.44
2018-09-13T12:14:04.833Z,82.25
2018-09-13T12:15:11.060Z,82.78
2018-09-13T12:16:17.197Z,82.75
2018-09-13T12:17:24.072Z,82.64
2018-09-13T12:18:30.743Z,82.78
2018-09-13T12:19:43.400Z,82.88
2018-09-13T12:20:55.173Z,82.24
2018-09-13T12:22:01.535Z,82.57
2018-09-13T12:23:07.789Z,82.16
2018-09-13T12:24:14.762Z,82.52
2018-09-13T12:25:21.755Z,83.53
2018-09-13T12:27:44.775Z,84.32
2018-09-13T12:28:51.057Z,84.38
2018-09-13T12:29:58.264Z,84.75
2018-09-13T12:31:04.561Z,84.46
2018-09-13T12:32:11.049Z,84.48
2018-09-13T12:33:16.970Z,85.04
2018-09-13T12:34:23.317Z,84.78
2018-09-13T12:35:31.435Z,84.56
2018-09-13T12:37:48.983Z,85.28
2018-09-13T12:38:55.238Z,85.17
2018-09-13T12:40:01.511Z,85.33
2018-09-13T12:41:08.251Z,85.64
2018-09-13T12:42:17.130Z,85.92
2018-09-13T12:43:24.855Z,86.26
2018-09-13T12:44:32.017Z,86.24
2018-09-13T12:45:37.764Z,86.33
2018-09-13T12:46:44.945Z,86.19
2018-09-13T12:47:52.223Z,86.39
2018-09-13T12:49:03.650Z,86.03
2018-09-13T12:50:08.963Z,85.95
2018-09-13T12:51:15.051Z,85.81
2018-09-13T12:52:21.944Z,86.30
2018-09-13T12:53:28.229Z,86.11
2018-09-13T12:54:33.905Z,85.96
2018-09-13T12:55:41.624Z,86.02
2018-09-13T12:56:47.997Z,86.05
2018-09-13T12:57:54.259Z,86.11
2018-09-13T12:59:00.870Z,85.74
2018-09-13T13:00:06.235Z,85.20
2018-09-13T13:01:15.393Z,85.42
2018-09-13T13:02:22.584Z,85.50
2018-09-13T13:03:28.882Z,85.62
2018-09-13T13:04:35.851Z,85.76
2018-09-13T13:05:43.085Z,85.77
2018-09-13T13:06:49.419Z,85.90
2018-09-13T13:07:55.656Z,85.81
2018-09-13T13:09:01.904Z,85.77
2018-09-13T13:10:07.240Z,85.64
2018-09-13T13:11:12.533Z,85.53
2018-09-13T13:12:19.357Z,85.77
2018-09-13T13:13:24.887Z,85.52
2018-09-13T13:14:30.549Z,85.11
2018-09-13T13:15:36.125Z,85.16
2018-09-13T13:16:42.229Z,84.94
2018-09-13T13:17:49.677Z,85.02
2018-09-13T13:18:59.360Z,85.09
2018-09-13T13:20:04.714Z,85.38
2018-09-13T13:21:10.712Z,85.23
2018-09-13T13:22:17.905Z,85.17
2018-09-13T13:23:24.796Z,85.37
2018-09-13T13:24:32.655Z,85.79
2018-09-13T13:25:38.978Z,85.87
2018-09-13T13:26:45.707Z,85.92
2018-09-13T13:27:51.730Z,86.23
2018-09-13T13:28:59.257Z,86.09
2018-09-13T13:30:04.851Z,85.73
2018-09-13T13:31:10.845Z,85.85
2018-09-13T13:32:16.884Z,85.72
2018-09-13T13:33:26.698Z,85.52
2018-09-13T13:34:36.967Z,85.86
2018-09-13T13:35:43.282Z,85.87
2018-09-13T13:36:50.204Z,85.55
2018-09-13T13:37:56.142Z,85.88
2018-09-13T13:39:05.467Z,86.11
2018-09-13T13:40:11.547Z,86.39
2018-09-13T13:41:23.410Z,85.71
2018-09-13T13:42:29.651Z,85.27
2018-09-13T13:43:35.923Z,85.80
2018-09-13T13:44:42.158Z,85.61
2018-09-13T13:45:48.383Z,86.36
2018-09-13T13:46:54.267Z,86.71
2018-09-13T13:48:00.504Z,86.69
2018-09-13T13:49:06.503Z,86.65
2018-09-13T13:50:12.512Z,86.54
2018-09-13T13:51:18.761Z,87.06
2018-09-13T13:52:24.988Z,86.91
2018-09-13T13:53:31.252Z,86.68
2018-09-13T13:54:37.493Z,86.35
2018-09-13T13:55:43.745Z,86.67
2018-09-13T13:56:49.646Z,86.81
2018-09-13T13:57:55.881Z,86.68
2018-09-13T13:59:03.792Z,85.90
2018-09-13T14:00:09.718Z,86.34
2018-09-13T14:01:16.592Z,85.69
2018-09-13T14:02:22.843Z,86.14
2018-09-13T14:03:29.137Z,85.59
2018-09-13T14:04:35.406Z,86.18
2018-09-13T14:05:41.642Z,86.00
2018-09-13T14:06:47.910Z,86.44
2018-09-13T14:07:54.148Z,86.71
2018-09-13T14:09:00.423Z,85.79
2018-09-13T14:10:06.411Z,85.90
2018-09-13T14:11:12.914Z,85.50
2018-09-13T14:12:20.176Z,86.00
2018-09-13T14:13:26.460Z,85.76
2018-09-13T14:14:32.730Z,86.00
2018-09-13T14:15:38.986Z,86.02
2018-09-13T14:16:45.239Z,85.96
2018-09-13T14:17:51.517Z,85.91
2018-09-13T14:18:57.791Z,86.38
2018-09-13T14:20:04.076Z,86.19
2018-09-13T14:21:10.362Z,86.40
2018-09-13T14:22:16.417Z,86.03
2018-09-13T14:23:22.656Z,86.22
2018-09-13T14:24:28.921Z,86.12
2018-09-13T14:25:34.974Z,86.06
2018-09-13T14:26:41.239Z,85.96
2018-09-13T14:27:47.582Z,86.19
2018-09-13T14:28:53.817Z,85.80
2018-09-13T14:30:00.114Z,85.95
2018-09-13T14:31:06.740Z,85.81
2018-09-13T14:32:12.980Z,86.25